Time;durP1;ratioP1;P1;durP2;ratioP2;P2;SDS_P1;SDS_P2;PMS_P1;PMS_P2;Temp;Humidity;BMP_temperature;BMP_pressure;BME280_temperature;BME280_humidity;BME280_pressure;Samples;Min_cycle;Max_cycle;Signal;HPM_P1;HPM_P2
2022/03/09 00:00:11;;;;;;;18.42;11.27;;;3.80;28.30;;;;;;5015104;28;25052;-76
2022/03/09 00:02:37;;;;;;;20.92;11.98;;;3.80;28.50;;;;;;5013745;28;25082;-75
2022/03/09 00:05:04;;;;;;;20.10;12.32;;;3.80;28.20;;;;;;4995101;28;25115;-74
2022/03/09 00:07:30;;;;;;;18.67;11.25;;;3.70;28.70;;;;;;5012166;28;25086;-73
2022/03/09 00:09:56;;;;;;;20.88;12.40;;;3.60;29.40;;;;;;5014573;28;25068;-74
2022/03/09 00:12:21;;;;;;;23.27;12.48;;;3.60;30.20;;;;;;5014595;28;25162;-74
2022/03/09 00:14:47;;;;;;;19.45;11.27;;;3.60;30.50;;;;;;5014115;28;25058;-75
2022/03/09 00:17:13;;;;;;;20.33;11.93;;;3.50;30.90;;;;;;4994910;28;25123;-75
2022/03/09 00:19:39;;;;;;;20.92;12.60;;;3.50;31.20;;;;;;5012788;28;25088;-76
2022/03/09 00:22:04;;;;;;;23.42;12.82;;;3.40;31.50;;;;;;5012192;28;25060;-74
2022/03/09 00:24:32;;;;;;;21.00;12.35;;;3.40;31.30;;;;;;5014372;28;25072;-74
2022/03/09 00:26:58;;;;;;;18.75;11.65;;;3.40;30.80;;;;;;4996692;28;25063;-75
2022/03/09 00:29:24;;;;;;;19.05;12.23;;;3.40;31.00;;;;;;5014351;28;25063;-76
2022/03/09 00:31:50;;;;;;;21.42;12.95;;;3.40;30.40;;;;;;5013815;28;25062;-73
2022/03/09 00:34:16;;;;;;;19.48;12.70;;;3.40;30.20;;;;;;4994866;28;25147;-76
2022/03/09 00:36:44;;;;;;;20.85;11.95;;;3.40;30.30;;;;;;5013423;28;25083;-76
2022/03/09 00:39:09;;;;;;;21.80;11.98;;;3.40;30.70;;;;;;5010624;28;25079;-74
2022/03/09 00:41:38;;;;;;;23.83;12.45;;;3.20;31.50;;;;;;5012602;28;25057;-74
2022/03/09 00:44:04;;;;;;;23.30;12.52;;;3.20;31.80;;;;;;5009273;28;25170;-73
2022/03/09 00:46:33;;;;;;;19.45;11.98;;;3.10;32.90;;;;;;5011676;28;25060;-75
2022/03/09 00:48:59;;;;;;;18.45;12.77;;;3.10;33.30;;;;;;5011185;28;25162;-74
2022/03/09 00:51:24;;;;;;;18.65;12.95;;;3.10;33.30;;;;;;5011395;28;25182;-74
2022/03/09 00:53:51;;;;;;;18.92;12.52;;;3.10;33.50;;;;;;5011285;28;25051;-75
2022/03/09 00:56:18;;;;;;;21.27;12.68;;;3.10;33.50;;;;;;5007086;28;25066;-74
2022/03/09 00:58:44;;;;;;;22.80;12.75;;;3.10;33.50;;;;;;5004957;28;25153;-73
2022/03/09 01:01:10;;;;;;;18.45;12.05;;;3.10;33.80;;;;;;5004498;28;25058;-74
2022/03/09 01:03:36;;;;;;;18.45;12.15;;;3.10;33.30;;;;;;5002225;28;25057;-74
2022/03/09 01:06:02;;;;;;;20.83;12.30;;;3.10;34.20;;;;;;4998005;28;25061;-75
2022/03/09 01:08:28;;;;;;;22.90;12.55;;;3.00;34.50;;;;;;5000818;28;25051;-74
2022/03/09 01:10:53;;;;;;;25.38;13.27;;;2.90;34.90;;;;;;4996875;28;25070;-74
2022/03/09 01:13:19;;;;;;;20.38;12.85;;;2.90;35.40;;;;;;5005561;28;25068;-74
2022/03/09 01:15:44;;;;;;;19.17;12.52;;;2.90;35.20;;;;;;5008452;28;25060;-73
2022/03/09 01:18:10;;;;;;;17.75;12.20;;;2.90;34.90;;;;;;5007613;28;25066;-74
2022/03/09 01:20:36;;;;;;;17.75;11.35;;;2.90;35.00;;;;;;5008570;28;25147;-73
2022/03/09 01:23:01;;;;;;;21.83;12.90;;;2.90;35.20;;;;;;5006952;28;25152;-74
2022/03/09 01:25:27;;;;;;;21.35;13.05;;;2.90;35.60;;;;;;5007788;28;25123;-74
2022/03/09 01:27:52;;;;;;;25.75;13.40;;;2.80;36.50;;;;;;5009595;28;25131;-73
2022/03/09 01:30:18;;;;;;;21.50;12.93;;;2.80;36.40;;;;;;5008147;28;25068;-74
2022/03/09 01:32:44;;;;;;;17.50;11.95;;;2.80;37.30;;;;;;4983810;28;25069;-74
2022/03/09 01:35:09;;;;;;;21.15;12.52;;;2.80;36.90;;;;;;5010233;28;25100;-74
2022/03/09 01:37:35;;;;;;;20.33;12.38;;;2.80;36.40;;;;;;5010870;28;25113;-73
2022/03/09 01:40:01;;;;;;;17.60;12.23;;;2.80;36.30;;;;;;5010387;28;25082;-74
2022/03/09 01:42:26;;;;;;;28.35;13.52;;;2.80;36.60;;;;;;5009681;28;25089;-74
2022/03/09 01:44:52;;;;;;;21.23;13.38;;;2.80;36.70;;;;;;5006354;28;25099;-74
2022/03/09 01:47:18;;;;;;;22.17;12.65;;;2.80;36.40;;;;;;5009759;28;25066;-74
2022/03/09 01:49:43;;;;;;;28.25;13.63;;;2.80;36.90;;;;;;4988190;28;25068;-74
2022/03/09 01:52:11;;;;;;;19.88;12.57;;;2.70;36.60;;;;;;5006939;28;25065;-73
2022/03/09 01:54:39;;;;;;;21.13;12.80;;;2.80;36.50;;;;;;5009146;28;25142;-75
2022/03/09 01:57:04;;;;;;;23.08;13.18;;;2.80;36.30;;;;;;5003062;28;25054;-75
2022/03/09 01:59:30;;;;;;;22.10;12.23;;;2.80;35.90;;;;;;5010994;28;25083;-74
2022/03/09 02:01:56;;;;;;;25.13;12.88;;;2.70;36.20;;;;;;5011318;28;25069;-73
2022/03/09 02:04:21;;;;;;;20.17;13.20;;;2.70;36.80;;;;;;5011342;28;25069;-75
2022/03/09 02:06:47;;;;;;;21.20;12.35;;;2.70;37.00;;;;;;5013220;28;25072;-73
2022/03/09 02:11:58;;;;;;;22.50;12.30;;;2.70;37.20;;;;;;5013363;28;25126;-75
2022/03/09 02:14:38;;;;;;;23.77;12.88;;;2.60;36.90;;;;;;4996871;28;25068;-75
2022/03/09 02:17:07;;;;;;;22.63;12.30;;;2.60;37.10;;;;;;5015510;28;25075;-74
2022/03/09 02:19:33;;;;;;;20.67;12.15;;;2.60;37.00;;;;;;5014623;28;25097;-76
2022/03/09 02:22:22;;;;;;;19.92;11.88;;;2.60;37.10;;;;;;5011166;28;25073;-73
2022/03/09 02:24:50;;;;;;;17.65;12.02;;;2.60;37.50;;;;;;5011279;28;25111;-75
2022/03/09 02:27:16;;;;;;;23.30;12.07;;;2.60;37.20;;;;;;5011714;28;25077;-75
2022/03/09 02:29:42;;;;;;;23.25;13.13;;;2.50;38.40;;;;;;4993935;28;25074;-74
2022/03/09 02:32:08;;;;;;;22.55;12.02;;;2.50;38.70;;;;;;4993798;28;25111;-74
2022/03/09 02:34:34;;;;;;;18.98;11.80;;;2.50;38.70;;;;;;5003800;28;25058;-74
2022/03/09 02:37:00;;;;;;;19.63;11.25;;;2.50;38.40;;;;;;5008583;28;25073;-74
2022/03/09 02:39:26;;;;;;;20.63;12.60;;;2.50;38.30;;;;;;5013400;28;25074;-74
2022/03/09 02:41:52;;;;;;;24.40;12.32;;;2.50;38.70;;;;;;5011448;28;25114;-73
2022/03/09 02:44:21;;;;;;;20.27;12.00;;;2.50;38.60;;;;;;5011653;28;25050;-74
2022/03/09 02:46:46;;;;;;;19.65;12.55;;;2.50;38.50;;;;;;5015513;28;25061;-74
2022/03/09 02:49:12;;;;;;;17.17;11.57;;;2.50;39.40;;;;;;5016486;28;25063;-74
2022/03/09 02:51:38;;;;;;;20.95;11.73;;;2.40;39.40;;;;;;5016645;28;25048;-74
2022/03/09 02:54:04;;;;;;;17.55;11.15;;;2.40;39.70;;;;;;4999492;28;25135;-74
2022/03/09 02:56:29;;;;;;;20.50;12.25;;;2.40;39.80;;;;;;5005415;28;25083;-75
2022/03/09 02:58:55;;;;;;;19.38;11.68;;;2.40;39.70;;;;;;5009679;28;25068;-74
2022/03/09 03:01:20;;;;;;;19.42;11.35;;;2.40;39.50;;;;;;5025044;28;25058;-75
2022/03/09 03:03:46;;;;;;;18.55;12.10;;;2.50;39.30;;;;;;5004890;28;25110;-74
2022/03/09 03:06:13;;;;;;;20.92;11.63;;;2.50;38.90;;;;;;5023577;28;25100;-75
2022/03/09 03:08:39;;;;;;;21.00;11.40;;;2.50;38.70;;;;;;5015554;28;25083;-73
2022/03/09 03:11:08;;;;;;;18.25;11.00;;;2.40;38.60;;;;;;5009584;28;25071;-74
2022/03/09 03:13:34;;;;;;;21.10;11.57;;;2.40;39.10;;;;;;5009571;28;25052;-73
2022/03/09 03:16:00;;;;;;;23.25;11.73;;;2.30;39.70;;;;;;4992394;28;25078;-74
2022/03/09 03:18:25;;;;;;;19.15;11.80;;;2.30;39.90;;;;;;5010356;28;25094;-73
2022/03/09 03:20:54;;;;;;;16.92;11.50;;;2.30;40.20;;;;;;5010529;28;25070;-74
2022/03/09 03:23:24;;;;;;;22.33;11.65;;;2.30;40.60;;;;;;5010478;28;25092;-74
2022/03/09 03:25:54;;;;;;;19.45;11.43;;;2.20;41.30;;;;;;5009611;28;25056;-74
2022/03/09 03:28:20;;;;;;;20.10;11.63;;;2.10;41.50;;;;;;4992222;28;25073;-74
2022/03/09 03:30:46;;;;;;;19.08;11.23;;;2.20;42.10;;;;;;5001961;28;25064;-74
2022/03/09 03:33:13;;;;;;;18.73;12.07;;;2.20;42.50;;;;;;5009681;28;25133;-74
2022/03/09 03:35:39;;;;;;;17.70;11.57;;;2.10;42.70;;;;;;5009910;28;25076;-74
2022/03/09 03:38:04;;;;;;;17.17;11.18;;;2.10;43.10;;;;;;5010120;28;25141;-74
2022/03/09 03:40:30;;;;;;;20.90;11.57;;;2.10;43.20;;;;;;5009298;28;25076;-74
2022/03/09 03:42:56;;;;;;;19.10;11.30;;;2.10;43.40;;;;;;5009867;28;25063;-74
2022/03/09 03:45:21;;;;;;;18.90;12.00;;;2.20;43.30;;;;;;5010773;28;25060;-75
2022/03/09 03:47:47;;;;;;;19.33;11.82;;;2.20;42.30;;;;;;5008245;28;25059;-74
2022/03/09 03:50:13;;;;;;;17.63;11.32;;;2.20;42.80;;;;;;5003510;28;25166;-74
2022/03/09 03:52:38;;;;;;;18.77;11.05;;;2.20;42.40;;;;;;5009961;28;25115;-75
2022/03/09 03:55:04;;;;;;;19.42;11.88;;;2.30;42.40;;;;;;4991954;28;25151;-75
2022/03/09 03:57:30;;;;;;;20.27;12.07;;;2.30;42.20;;;;;;5009908;28;25068;-75
2022/03/09 03:59:56;;;;;;;22.15;12.15;;;2.30;42.10;;;;;;5010760;28;25069;-74
2022/03/09 04:02:21;;;;;;;20.83;12.02;;;2.30;42.00;;;;;;5010205;28;25056;-74
2022/03/09 04:04:47;;;;;;;19.88;11.70;;;2.20;42.50;;;;;;5009206;28;25059;-74
2022/03/09 04:07:12;;;;;;;20.90;12.27;;;2.20;43.00;;;;;;5008419;28;25066;-74
2022/03/09 04:09:38;;;;;;;20.00;11.98;;;2.20;43.30;;;;;;5009540;28;25101;-73
2022/03/09 04:12:04;;;;;;;20.02;12.02;;;2.10;44.20;;;;;;4995546;28;25060;-73
2022/03/09 04:14:29;;;;;;;20.52;11.32;;;2.00;45.00;;;;;;5012823;28;25065;-74
2022/03/09 04:16:55;;;;;;;20.42;12.20;;;2.00;45.70;;;;;;5012664;28;25260;-74
2022/03/09 04:19:20;;;;;;;20.92;11.68;;;2.00;46.10;;;;;;5008382;28;25108;-74
2022/03/09 04:21:46;;;;;;;19.00;11.43;;;2.00;46.10;;;;;;5011921;28;25065;-74
2022/03/09 04:24:12;;;;;;;18.95;11.68;;;2.00;46.30;;;;;;5012399;28;25177;-74
2022/03/09 04:26:37;;;;;;;20.77;12.50;;;2.10;45.90;;;;;;5013474;28;25054;-74
2022/03/09 04:29:03;;;;;;;22.75;12.13;;;2.00;45.70;;;;;;5013312;28;25056;-75
2022/03/09 04:31:29;;;;;;;18.33;11.82;;;2.00;46.30;;;;;;5009738;28;25062;-74
2022/03/09 04:33:55;;;;;;;19.33;12.00;;;2.00;46.30;;;;;;5013748;28;25056;-75
2022/03/09 04:36:21;;;;;;;21.58;11.35;;;1.90;46.00;;;;;;5011025;28;25065;-75
2022/03/09 04:38:46;;;;;;;19.65;11.80;;;1.90;46.70;;;;;;5005029;28;25081;-75
2022/03/09 04:41:12;;;;;;;19.23;11.30;;;1.90;46.70;;;;;;4981962;28;25067;-75
2022/03/09 04:43:37;;;;;;;18.67;11.32;;;1.90;46.90;;;;;;4996563;28;25054;-74
2022/03/09 04:46:03;;;;;;;23.35;12.93;;;1.80;46.80;;;;;;4997900;28;25072;-75
2022/03/09 04:48:28;;;;;;;17.13;11.00;;;1.80;47.10;;;;;;4979661;28;25063;-74
2022/03/09 04:50:54;;;;;;;16.73;12.10;;;1.80;47.20;;;;;;4993088;28;25060;-74
2022/03/09 04:53:20;;;;;;;18.35;11.65;;;1.80;47.10;;;;;;4980526;28;25053;-75
2022/03/09 04:55:45;;;;;;;19.80;11.82;;;1.90;46.20;;;;;;5001578;28;25111;-74
2022/03/09 04:58:11;;;;;;;18.35;11.63;;;1.80;46.60;;;;;;5007685;28;25059;-74
2022/03/09 05:00:37;;;;;;;21.92;12.73;;;1.70;47.00;;;;;;5007582;28;25142;-74
2022/03/09 05:03:02;;;;;;;18.50;11.40;;;1.60;47.90;;;;;;5007093;28;25083;-74
2022/03/09 05:05:28;;;;;;;17.85;11.20;;;1.60;48.10;;;;;;5005994;28;25102;-74
2022/03/09 05:07:53;;;;;;;19.65;11.25;;;1.60;48.20;;;;;;5009059;28;25064;-76
2022/03/09 05:10:20;;;;;;;19.30;11.23;;;1.60;48.40;;;;;;5008509;28;25065;-76
2022/03/09 05:12:46;;;;;;;19.65;12.05;;;1.60;48.70;;;;;;5011625;28;25109;-75
2022/03/09 05:15:12;;;;;;;23.17;11.88;;;1.60;48.90;;;;;;5012226;28;25077;-74
2022/03/09 05:17:42;;;;;;;19.80;12.57;;;1.60;49.00;;;;;;5011613;28;25071;-76
2022/03/09 05:20:08;;;;;;;21.05;12.07;;;1.50;49.00;;;;;;5012593;28;25065;-76
2022/03/09 05:22:34;;;;;;;14.90;10.55;;;1.50;49.20;;;;;;5012650;28;25102;-75
2022/03/09 05:24:59;;;;;;;16.88;11.40;;;1.60;48.90;;;;;;5012863;28;25090;-74
2022/03/09 05:27:28;;;;;;;20.48;12.02;;;1.60;48.60;;;;;;5012725;28;25064;-75
2022/03/09 05:29:54;;;;;;;17.70;11.35;;;1.60;48.90;;;;;;5009390;28;25070;-75
2022/03/09 05:32:19;;;;;;;17.75;11.85;;;1.60;49.20;;;;;;5002060;28;25165;-76
2022/03/09 05:34:46;;;;;;;20.10;12.02;;;1.50;49.40;;;;;;5009286;28;25098;-75
2022/03/09 05:37:12;;;;;;;21.10;13.38;;;1.50;49.70;;;;;;4992842;28;25069;-75
2022/03/09 05:39:38;;;;;;;19.67;12.10;;;1.50;49.50;;;;;;5014664;28;25076;-76
2022/03/09 05:42:04;;;;;;;18.88;11.93;;;1.50;49.80;;;;;;4997587;28;25072;-75
2022/03/09 05:44:30;;;;;;;18.70;11.68;;;1.50;49.70;;;;;;5005672;28;25077;-75
2022/03/09 05:46:57;;;;;;;20.48;11.30;;;1.50;50.00;;;;;;5014230;28;25059;-76
2022/03/09 05:49:22;;;;;;;23.15;11.68;;;1.40;50.30;;;;;;5006392;28;25092;-76
2022/03/09 05:51:49;;;;;;;17.52;11.15;;;1.50;50.90;;;;;;5007223;28;25090;-76
2022/03/09 05:54:15;;;;;;;17.17;11.07;;;1.50;50.50;;;;;;5008281;28;25063;-76
2022/03/09 05:56:41;;;;;;;20.52;12.02;;;1.50;50.70;;;;;;5006468;28;25077;-75
2022/03/09 05:59:07;;;;;;;19.98;11.55;;;1.50;50.70;;;;;;5005316;28;25122;-76
2022/03/09 06:01:32;;;;;;;18.60;12.23;;;1.50;50.40;;;;;;5010630;28;25049;-75
2022/03/09 06:03:58;;;;;;;20.27;12.20;;;1.50;50.10;;;;;;5012336;28;25067;-75
2022/03/09 06:06:24;;;;;;;19.67;11.85;;;1.60;49.90;;;;;;4996109;28;25068;-76
2022/03/09 06:08:49;;;;;;;21.88;12.55;;;1.60;50.00;;;;;;5012627;28;25146;-78
2022/03/09 06:11:15;;;;;;;18.80;12.43;;;1.60;50.30;;;;;;5012039;28;25061;-76
2022/03/09 06:13:40;;;;;;;20.98;12.10;;;1.50;50.60;;;;;;5010916;28;25071;-77
2022/03/09 06:16:06;;;;;;;17.90;11.93;;;1.60;51.10;;;;;;5006252;28;25110;-76
2022/03/09 06:18:32;;;;;;;20.52;12.18;;;1.60;51.00;;;;;;5002063;28;25109;-76
2022/03/09 06:20:58;;;;;;;17.60;11.95;;;1.60;51.20;;;;;;5010726;28;25070;-75
2022/03/09 06:23:23;;;;;;;24.40;12.52;;;1.60;50.90;;;;;;5001773;28;25067;-75
2022/03/09 06:25:49;;;;;;;19.00;12.55;;;1.60;51.40;;;;;;5007707;28;25090;-75
2022/03/09 06:28:15;;;;;;;19.80;11.95;;;1.50;51.30;;;;;;5009419;28;25101;-74
2022/03/09 06:30:40;;;;;;;19.70;12.05;;;1.60;51.50;;;;;;5027963;28;25107;-75
2022/03/09 06:33:06;;;;;;;19.27;12.13;;;1.60;51.10;;;;;;5026438;28;25066;-74
2022/03/09 06:35:32;;;;;;;20.80;12.82;;;1.60;50.70;;;;;;5026761;28;25077;-76
2022/03/09 06:37:58;;;;;;;18.45;12.50;;;1.70;51.00;;;;;;5025325;28;25076;-74
2022/03/09 06:40:25;;;;;;;28.80;11.98;;;1.60;51.20;;;;;;5022560;28;25084;-75
2022/03/09 06:42:51;;;;;;;20.38;12.25;;;1.70;51.90;;;;;;5009399;28;25089;-74
2022/03/09 06:45:16;;;;;;;19.58;11.80;;;1.60;52.30;;;;;;5015085;28;25108;-74
2022/03/09 06:47:42;;;;;;;20.45;12.75;;;1.60;52.90;;;;;;5029126;28;25145;-75
2022/03/09 06:50:09;;;;;;;20.15;12.02;;;1.60;53.30;;;;;;5016538;28;25090;-74
2022/03/09 06:52:34;;;;;;;24.23;13.48;;;1.70;53.20;;;;;;5013081;28;25076;-74
2022/03/09 06:55:03;;;;;;;22.33;12.93;;;1.70;53.10;;;;;;5012873;28;25047;-73
2022/03/09 06:57:32;;;;;;;22.13;12.45;;;1.80;52.60;;;;;;5013314;28;25081;-74
2022/03/09 06:59:58;;;;;;;17.65;11.73;;;1.80;52.60;;;;;;5015146;28;25109;-75
2022/03/09 07:02:24;;;;;;;18.30;12.27;;;1.80;53.00;;;;;;5011457;28;25367;-75
2022/03/09 07:04:49;;;;;;;20.83;12.48;;;1.80;53.00;;;;;;5009845;28;25075;-74
2022/03/09 07:07:15;;;;;;;22.38;12.15;;;1.90;53.20;;;;;;5008917;28;25075;-74
2022/03/09 07:09:41;;;;;;;20.75;12.38;;;2.00;52.90;;;;;;5009322;28;25219;-74
2022/03/09 07:12:07;;;;;;;20.27;11.82;;;2.00;52.00;;;;;;5009475;28;25115;-74
2022/03/09 07:14:32;;;;;;;23.63;11.75;;;2.00;51.80;;;;;;4975768;28;25054;-74
2022/03/09 07:16:58;;;;;;;21.52;12.35;;;2.00;52.50;;;;;;5009364;28;25102;-74
2022/03/09 07:19:23;;;;;;;17.88;11.82;;;2.10;52.00;;;;;;5008679;28;25081;-74
2022/03/09 07:21:49;;;;;;;25.73;12.18;;;2.10;51.10;;;;;;5008831;28;25152;-74
2022/03/09 07:24:15;;;;;;;23.23;12.57;;;2.20;50.60;;;;;;5008876;28;25128;-74
2022/03/09 07:26:42;;;;;;;21.23;12.23;;;2.20;49.40;;;;;;5011037;28;25175;-75
2022/03/09 07:29:09;;;;;;;22.67;12.85;;;2.30;49.20;;;;;;4994670;28;25074;-75
2022/03/09 07:31:35;;;;;;;21.35;13.90;;;2.30;47.70;;;;;;5009011;28;25054;-74
2022/03/09 07:34:01;;;;;;;25.65;12.43;;;2.30;47.90;;;;;;5009110;28;25058;-74
2022/03/09 07:36:26;;;;;;;20.15;12.73;;;2.30;48.00;;;;;;5008187;28;25052;-75
2022/03/09 07:38:52;;;;;;;19.40;12.30;;;2.40;47.50;;;;;;5009093;28;25096;-74
2022/03/09 07:41:17;;;;;;;20.80;12.15;;;2.50;47.50;;;;;;5008279;28;25105;-74
2022/03/09 07:43:43;;;;;;;22.35;12.85;;;2.60;47.60;;;;;;5007807;28;25140;-74
2022/03/09 07:46:09;;;;;;;20.63;12.20;;;2.60;47.60;;;;;;5009733;28;25083;-73
2022/03/09 07:48:35;;;;;;;21.95;12.65;;;2.60;48.10;;;;;;5009202;28;25093;-75
2022/03/09 07:51:01;;;;;;;19.35;11.93;;;2.70;47.70;;;;;;5009663;28;25103;-74
2022/03/09 07:53:26;;;;;;;20.70;12.38;;;2.70;47.30;;;;;;5009317;28;25113;-75
2022/03/09 07:55:52;;;;;;;23.40;12.50;;;2.80;47.40;;;;;;5009650;28;25060;-75
2022/03/09 07:58:18;;;;;;;23.08;13.43;;;2.90;47.60;;;;;;5009159;28;25043;-75
2022/03/09 08:00:43;;;;;;;21.48;12.30;;;3.00;47.40;;;;;;5009289;28;25133;-75
2022/03/09 08:03:09;;;;;;;22.27;13.70;;;3.10;47.20;;;;;;5008356;28;25080;-75
2022/03/09 08:05:35;;;;;;;22.73;13.05;;;3.20;47.10;;;;;;5008705;28;25092;-74
2022/03/09 08:08:01;;;;;;;20.05;12.07;;;3.30;46.80;;;;;;5009809;28;25067;-74
2022/03/09 08:10:26;;;;;;;21.35;12.68;;;3.40;45.80;;;;;;4991159;28;25152;-73
2022/03/09 08:12:52;;;;;;;21.17;12.15;;;3.60;45.60;;;;;;5009019;28;25102;-75
2022/03/09 08:15:17;;;;;;;24.17;12.45;;;3.70;45.00;;;;;;5008569;28;25149;-74
2022/03/09 08:17:43;;;;;;;19.73;12.70;;;3.90;43.60;;;;;;5007942;28;25148;-74
2022/03/09 08:20:09;;;;;;;21.50;14.10;;;4.00;43.50;;;;;;5008743;28;25140;-74
2022/03/09 08:22:35;;;;;;;27.60;13.88;;;4.10;42.60;;;;;;5009250;28;25066;-73
2022/03/09 08:25:01;;;;;;;20.63;12.57;;;4.30;42.50;;;;;;5008813;28;25131;-74
2022/03/09 08:27:26;;;;;;;20.83;12.10;;;4.40;42.70;;;;;;5008438;28;25059;-76
2022/03/09 08:29:52;;;;;;;26.88;13.38;;;4.60;42.90;;;;;;4991457;28;25055;-75
2022/03/09 08:32:19;;;;;;;18.67;12.35;;;4.90;41.90;;;;;;5008853;28;25070;-74
2022/03/09 08:34:46;;;;;;;20.27;12.07;;;5.20;41.20;;;;;;5009257;28;25061;-75
2022/03/09 08:37:11;;;;;;;19.38;12.50;;;5.50;36.30;;;;;;5009531;28;25048;-74
2022/03/09 08:39:37;;;;;;;22.55;12.32;;;5.70;33.30;;;;;;5013765;28;25066;-74
2022/03/09 08:42:03;;;;;;;22.17;12.73;;;5.90;30.50;;;;;;5015676;28;25091;-74
2022/03/09 08:44:28;;;;;;;21.20;12.88;;;6.30;30.70;;;;;;4997547;28;25057;-75
2022/03/09 08:46:54;;;;;;;19.40;11.98;;;6.70;29.90;;;;;;5015257;28;25071;-74
2022/03/09 08:49:20;;;;;;;17.85;12.63;;;7.00;27.50;;;;;;5014412;28;25087;-76
2022/03/09 08:51:46;;;;;;;22.63;12.65;;;7.20;25.50;;;;;;5014745;28;25066;-73
2022/03/09 08:54:11;;;;;;;20.00;12.13;;;7.10;25.50;;;;;;5013701;28;25075;-73
2022/03/09 08:56:37;;;;;;;27.00;13.32;;;7.30;24.50;;;;;;5012689;28;25102;-74
2022/03/09 08:59:02;;;;;;;23.17;13.57;;;7.50;25.50;;;;;;5012787;28;25087;-74
2022/03/09 09:01:28;;;;;;;21.58;13.30;;;7.70;23.70;;;;;;5012537;28;25150;-73
2022/03/09 09:03:54;;;;;;;24.83;13.32;;;7.60;21.90;;;;;;5011732;28;25091;-73
2022/03/09 09:06:19;;;;;;;23.77;14.25;;;7.30;22.30;;;;;;5011741;28;25062;-73
2022/03/09 09:08:45;;;;;;;24.27;13.73;;;7.40;22.20;;;;;;5012060;28;25066;-73
2022/03/09 09:11:11;;;;;;;19.67;13.07;;;7.20;23.50;;;;;;4993739;28;25066;-74
2022/03/09 09:13:36;;;;;;;19.85;13.57;;;7.50;22.50;;;;;;5011468;28;25073;-73
2022/03/09 09:16:02;;;;;;;23.58;13.20;;;7.80;22.60;;;;;;5011764;28;25157;-73
2022/03/09 09:18:28;;;;;;;26.10;14.68;;;8.30;21.40;;;;;;5014707;28;25069;-74
2022/03/09 09:20:54;;;;;;;23.27;13.52;;;8.50;19.80;;;;;;5014428;28;25071;-73
2022/03/09 09:23:20;;;;;;;26.05;14.40;;;8.50;19.10;;;;;;5013547;28;25085;-73
2022/03/09 09:25:47;;;;;;;20.88;13.50;;;8.40;19.40;;;;;;5014545;28;25065;-73
2022/03/09 09:28:13;;;;;;;27.67;14.20;;;8.40;19.70;;;;;;5017667;28;25060;-73
2022/03/09 09:30:39;;;;;;;22.65;13.32;;;8.50;18.50;;;;;;5017808;28;25096;-72
2022/03/09 09:33:05;;;;;;;23.63;14.23;;;8.60;18.50;;;;;;4998926;28;25057;-73
2022/03/09 09:35:30;;;;;;;23.85;14.43;;;8.80;19.30;;;;;;5013880;28;25077;-72
2022/03/09 09:37:56;;;;;;;22.85;14.90;;;9.10;18.90;;;;;;5014524;28;25183;-72
2022/03/09 09:40:23;;;;;;;28.20;15.73;;;9.20;17.20;;;;;;5015987;28;25077;-73
2022/03/09 09:42:50;;;;;;;24.42;14.23;;;9.30;17.70;;;;;;5015850;28;25105;-72
2022/03/09 09:45:15;;;;;;;23.35;14.70;;;9.50;16.70;;;;;;5016022;28;25062;-72
2022/03/09 09:47:42;;;;;;;21.85;14.27;;;9.60;17.80;;;;;;5014590;28;25057;-73
2022/03/09 09:50:13;;;;;;;26.33;14.52;;;10.10;17.10;;;;;;5014060;28;25054;-73
2022/03/09 09:52:41;;;;;;;26.73;15.65;;;10.20;15.30;;;;;;5013532;28;25071;-73
2022/03/09 09:55:07;;;;;;;25.10;15.05;;;10.50;15.00;;;;;;5013313;28;25181;-72
2022/03/09 09:57:33;;;;;;;25.02;16.17;;;10.80;14.00;;;;;;5014807;28;25090;-75
2022/03/09 09:59:59;;;;;;;31.00;16.38;;;10.60;13.60;;;;;;5013914;28;25064;-72
2022/03/09 10:02:25;;;;;;;30.73;17.10;;;10.70;13.20;;;;;;5015237;28;25138;-72
2022/03/09 10:04:51;;;;;;;30.98;16.83;;;10.90;13.50;;;;;;5016302;28;25086;-71
2022/03/09 10:07:18;;;;;;;33.33;16.80;;;10.60;13.00;;;;;;5017904;28;25099;-72
2022/03/09 10:09:43;;;;;;;39.13;17.52;;;10.50;14.30;;;;;;5019495;28;25155;-73
2022/03/09 10:12:13;;;;;;;34.28;18.15;;;10.70;12.10;;;;;;5004895;28;25184;-72
2022/03/09 10:14:53;;;;;;;31.77;16.30;;;10.90;13.40;;;;;;5024830;28;25111;-72
2022/03/09 10:17:21;;;;;;;31.52;18.33;;;11.30;13.00;;;;;;5025354;28;25092;-74
2022/03/09 10:19:50;;;;;;;26.15;16.98;;;11.30;10.60;;;;;;5026423;28;25054;-71
2022/03/09 10:22:34;;;;;;;29.23;17.35;;;10.90;13.40;;;;;;5026021;28;25070;-72
2022/03/09 10:25:09;;;;;;;33.75;18.02;;;11.20;11.80;;;;;;5022484;28;25077;-72
2022/03/09 10:27:43;;;;;;;31.70;17.73;;;10.90;12.80;;;;;;5022112;28;25082;-72
2022/03/09 10:30:11;;;;;;;30.30;17.38;;;10.90;13.90;;;;;;5021262;28;25086;-72
2022/03/09 10:32:43;;;;;;;32.65;18.67;;;10.90;12.90;;;;;;5022813;28;25053;-72
2022/03/09 10:35:10;;;;;;;32.33;18.00;;;10.70;13.80;;;;;;5021183;28;25078;-72
2022/03/09 10:37:40;;;;;;;30.90;18.50;;;10.80;12.50;;;;;;5024073;28;25051;-72
2022/03/09 10:40:14;;;;;;;30.50;17.30;;;11.00;13.60;;;;;;5022836;28;25074;-72
2022/03/09 10:42:40;;;;;;;33.17;18.05;;;11.30;12.70;;;;;;5020504;28;25067;-72
2022/03/09 10:45:07;;;;;;;33.15;18.35;;;11.60;10.80;;;;;;5000462;28;25143;-73
2022/03/09 10:47:39;;;;;;;36.95;19.98;;;11.40;12.10;;;;;;5018255;28;25098;-73
2022/03/09 10:50:22;;;;;;;38.83;20.33;;;11.70;11.40;;;;;;5017299;28;25065;-72
2022/03/09 10:53:04;;;;;;;30.52;18.85;;;11.70;11.40;;;;;;5018490;28;25069;-71
2022/03/09 10:55:35;;;;;;;34.78;20.15;;;12.10;9.40;;;;;;4984372;28;25177;-73
2022/03/09 10:58:13;;;;;;;30.88;18.60;;;12.00;10.70;;;;;;5018761;28;25069;-72
2022/03/09 11:00:44;;;;;;;37.22;21.10;;;11.80;11.00;;;;;;5002635;28;25076;-73
2022/03/09 11:03:22;;;;;;;33.78;19.80;;;12.00;10.00;;;;;;5018616;28;25075;-74
2022/03/09 11:05:56;;;;;;;36.00;20.80;;;12.00;9.40;;;;;;5015139;28;25075;-74
2022/03/09 11:08:26;;;;;;;44.28;20.52;;;12.00;10.80;;;;;;5015785;28;25105;-73
2022/03/09 11:10:51;;;;;;;39.40;20.75;;;12.20;10.50;;;;;;5016710;28;25069;-74
2022/03/09 11:13:17;;;;;;;37.05;20.20;;;12.50;10.10;;;;;;5016521;28;25139;-74
2022/03/09 11:15:47;;;;;;;36.67;19.48;;;13.10;10.40;;;;;;4998876;28;25058;-73
2022/03/09 11:18:17;;;;;;;35.30;20.40;;;13.50;8.80;;;;;;5017026;28;25068;-74
2022/03/09 11:20:44;;;;;;;33.35;19.60;;;13.80;7.20;;;;;;5017661;28;25060;-73
2022/03/09 11:23:12;;;;;;;32.83;19.55;;;13.60;7.20;;;;;;5017010;28;25063;-72
2022/03/09 11:25:39;;;;;;;33.20;19.40;;;13.70;7.90;;;;;;5015215;28;25094;-72
2022/03/09 11:28:05;;;;;;;37.72;20.65;;;14.10;6.50;;;;;;5013575;28;25074;-76
2022/03/09 11:30:33;;;;;;;37.85;20.30;;;14.10;6.40;;;;;;4996946;28;25101;-72
2022/03/09 11:32:59;;;;;;;33.03;19.83;;;14.00;7.30;;;;;;5019100;28;25145;-71
2022/03/09 11:35:40;;;;;;;36.50;21.05;;;14.10;6.30;;;;;;5020590;28;25099;-72
2022/03/09 11:38:33;;;;;;;37.90;20.48;;;14.40;6.40;;;;;;5000655;28;25062;-73
2022/03/09 11:41:14;;;;;;;40.53;21.70;;;14.40;4.50;;;;;;5017408;28;25063;-73
2022/03/09 11:43:40;;;;;;;34.42;20.67;;;14.70;4.50;;;;;;4998627;28;25062;-72
2022/03/09 11:46:06;;;;;;;36.70;19.80;;;14.70;3.40;;;;;;5014970;28;25076;-72
2022/03/09 11:48:54;;;;;;;36.70;21.45;;;14.60;3.60;;;;;;5015731;28;25066;-73
2022/03/09 11:51:23;;;;;;;35.95;22.30;;;15.00;2.90;;;;;;4997650;28;25153;-70
2022/03/09 11:53:54;;;;;;;40.20;22.52;;;15.20;3.70;;;;;;5014723;28;25040;-72
2022/03/09 11:56:29;;;;;;;35.42;21.88;;;15.60;1.60;;;;;;5015178;28;25089;-73
2022/03/09 11:59:15;;;;;;;37.38;20.45;;;15.60;1.50;;;;;;5014251;28;25067;-72
2022/03/09 12:01:58;;;;;;;37.13;20.95;;;15.50;2.40;;;;;;5015242;28;25065;-75
2022/03/09 12:04:42;;;;;;;38.70;21.80;;;15.80;1.00;;;;;;5013911;28;25071;-73
2022/03/09 12:07:35;;;;;;;34.83;21.77;;;15.30;1.60;;;;;;5012187;28;25076;-72
2022/03/09 12:10:03;;;;;;;35.72;22.00;;;15.00;1.00;;;;;;5013381;28;25129;-72
2022/03/09 12:12:31;;;;;;;40.60;23.10;;;14.80;1.10;;;;;;5015199;28;25114;-72
2022/03/09 12:15:10;;;;;;;37.75;21.25;;;15.20;2.30;;;;;;5013523;28;25057;-73
2022/03/09 12:17:49;;;;;;;37.85;21.58;;;15.40;1.00;;;;;;5015774;28;25087;-72
2022/03/09 12:20:19;;;;;;;39.88;21.90;;;15.60;1.70;;;;;;5015903;28;25094;-72
2022/03/09 12:22:57;;;;;;;36.80;20.55;;;15.60;1.00;;;;;;5015611;28;25084;-72
2022/03/09 12:25:43;;;;;;;34.60;21.10;;;15.40;1.50;;;;;;5014663;28;25067;-71
2022/03/09 12:30:59;;;;;;;40.58;22.63;;;16.00;1.00;;;;;;5013788;28;25082;-71
2022/03/09 12:33:26;;;;;;;36.55;20.00;;;15.50;1.00;;;;;;5014131;28;25064;-72
2022/03/09 12:35:52;;;;;;;39.78;22.05;;;15.50;1.00;;;;;;5014153;28;25070;-73
2022/03/09 12:38:19;;;;;;;36.15;21.77;;;16.10;1.00;;;;;;5014429;28;25078;-74
2022/03/09 12:40:47;;;;;;;35.80;21.98;;;16.60;1.00;;;;;;5014049;28;25060;-71